Masset current weather conditions

sailwx.info

Wind from 330 at 14 knots

Air temperature 8.0° C
Visibility: greater than 13.0 NM
Dewpoint 5.0° C

Last reported at 2018-Apr-25 01:00 UTC.
Time now 2018-Apr-25 08:32 UTC

Location: N 54°02' W 132°08'.
View on Google Maps.

See reports from other nearby stations

  
Tides and Currents Weather Stations Pressure Air Temp Water Temp Dewpoint Dewpoint Depression Visibility Wind Speed Wind Dir Waves Ship Positions
date/time (UTC)wind fromknots sea level pressurealtimeterstation pressurevisibilityair tempwater tempwave heightnotes
2018-Apr-25 01:00 330 14 13.0 8.0
2018-Apr-25 00:00 340 14 13.010.0
2018-Apr-24 23:00 330 13 13.010.0
2018-Apr-24 22:47 340 13 13.0 9.0
2018-Apr-24 22:00 340 13 13.010.0
2018-Apr-24 21:00 340 12 gusting 18 13.0 9.0
2018-Apr-24 20:00 340 12 gusting 18 13.0 9.0
2018-Apr-24 19:00 340 8 13.0 9.0
2018-Apr-24 18:27 340 9 13.0 8.0
2018-Apr-24 18:00 340 7 13.0 8.0
2018-Apr-24 17:00 320 7 13.0 7.0
2018-Apr-24 16:00 300 4 13.0 8.0
2018-Apr-24 15:07 200 1 13.0 7.0
2018-Apr-24 15:00 13.0 7.0
2018-Apr-24 14:00 170 1 13.0 6.0
2018-Apr-24 01:00 160 13 gusting 20 8.7 9.0 Light drizzle.
2018-Apr-24 00:00 150 15 gusting 26 8.7 9.0 Light drizzle.
2018-Apr-23 23:15 160 15 gusting 27 8.7 9.0 Light drizzle.
2018-Apr-23 23:00 160 20 gusting 27 13.0 9.0
2018-Apr-23 22:00 150 17 gusting 27 13.010.0
2018-Apr-23 21:00 160 22 gusting 34 13.010.0
2018-Apr-23 20:00 160 26 gusting 38 13.010.0
2018-Apr-23 19:00 160 22 gusting 34 13.0 9.0
2018-Apr-23 18:00 160 20 gusting 32 13.0 9.0
2018-Apr-23 17:44 160 17 gusting 28 13.0 9.0
2018-Apr-23 17:00 160 20 gusting 34 13.0 9.0 Light rain showers.
2018-Apr-23 16:00 160 26 gusting 34 13.0 8.0 Light rain showers.
2018-Apr-23 15:00 150 15 gusting 25 13.0 8.0 Light rain showers.
2018-Apr-23 14:00 160 20 gusting 26 8.7 8.0 Light rain showers.